sensor_id;sensor_type;location;lat;lon;timestamp;P1;durP1;ratioP1;P2;durP2;ratioP2
35562;SDS011;21665;40.108;18.302;2023-03-20T05:48:04;40.25;;;24.77;;
35562;SDS011;21665;40.108;18.302;2023-03-20T05:51:09;37.55;;;25.00;;
35562;SDS011;21665;40.108;18.302;2023-03-20T05:53:58;34.00;;;24.27;;
35562;SDS011;21665;40.108;18.302;2023-03-20T05:59:21;37.00;;;23.60;;
35562;SDS011;21665;40.108;18.302;2023-03-20T06:02:54;32.20;;;22.58;;
35562;SDS011;21665;40.108;18.302;2023-03-20T06:11:41;30.70;;;22.20;;
35562;SDS011;21665;40.108;18.302;2023-03-20T06:14:15;30.27;;;20.38;;
35562;SDS011;21665;40.108;18.302;2023-03-20T06:20:02;24.63;;;19.30;;
35562;SDS011;21665;40.108;18.302;2023-03-20T06:22:29;28.67;;;19.75;;
35562;SDS011;21665;40.108;18.302;2023-03-20T06:24:57;24.65;;;19.60;;
35562;SDS011;21665;40.108;18.302;2023-03-20T06:27:30;28.20;;;19.20;;
35562;SDS011;21665;40.108;18.302;2023-03-20T06:29:57;21.48;;;17.70;;
35562;SDS011;21665;40.108;18.302;2023-03-20T06:32:29;21.33;;;18.02;;
35562;SDS011;21665;40.108;18.302;2023-03-20T06:34:58;18.75;;;17.00;;
35562;SDS011;21665;40.108;18.302;2023-03-20T06:37:43;20.33;;;18.08;;
35562;SDS011;21665;40.108;18.302;2023-03-20T06:40:29;22.65;;;17.77;;
35562;SDS011;21665;40.108;18.302;2023-03-20T06:43:12;22.20;;;20.02;;
35562;SDS011;21665;40.108;18.302;2023-03-20T06:45:52;24.42;;;21.05;;
35562;SDS011;21665;40.108;18.302;2023-03-20T06:50:57;22.73;;;20.73;;
35562;SDS011;21665;40.108;18.302;2023-03-20T06:53:34;21.60;;;19.67;;
35562;SDS011;21665;40.108;18.302;2023-03-20T06:56:07;20.27;;;18.45;;
35562;SDS011;21665;40.108;18.302;2023-03-20T06:58:54;20.48;;;18.88;;
35562;SDS011;21665;40.108;18.302;2023-03-20T07:01:22;21.27;;;19.60;;
35562;SDS011;21665;40.108;18.302;2023-03-20T07:03:52;21.73;;;19.75;;
35562;SDS011;21665;40.108;18.302;2023-03-20T07:06:27;20.85;;;19.15;;
35562;SDS011;21665;40.108;18.302;2023-03-20T07:09:03;22.27;;;20.27;;
35562;SDS011;21665;40.108;18.302;2023-03-20T07:11:34;22.08;;;20.00;;
35562;SDS011;21665;40.108;18.302;2023-03-20T07:14:04;20.88;;;19.15;;
35562;SDS011;21665;40.108;18.302;2023-03-20T07:20:21;21.00;;;19.38;;
35562;SDS011;21665;40.108;18.302;2023-03-20T07:23:09;21.38;;;19.77;;
35562;SDS011;21665;40.108;18.302;2023-03-20T07:25:53;18.92;;;17.20;;
35562;SDS011;21665;40.108;18.302;2023-03-20T07:28:44;18.55;;;17.20;;
35562;SDS011;21665;40.108;18.302;2023-03-20T07:31:26;19.75;;;18.23;;
35562;SDS011;21665;40.108;18.302;2023-03-20T07:34:27;20.63;;;19.08;;
35562;SDS011;21665;40.108;18.302;2023-03-20T07:37:53;19.52;;;18.10;;
35562;SDS011;21665;40.108;18.302;2023-03-20T07:40:53;19.42;;;18.08;;
35562;SDS011;21665;40.108;18.302;2023-03-20T07:43:20;20.27;;;18.63;;
35562;SDS011;21665;40.108;18.302;2023-03-20T07:49:24;20.98;;;19.20;;
35562;SDS011;21665;40.108;18.302;2023-03-20T07:51:53;20.20;;;18.50;;
35562;SDS011;21665;40.108;18.302;2023-03-20T07:54:30;20.75;;;19.25;;
35562;SDS011;21665;40.108;18.302;2023-03-20T07:57:09;19.48;;;18.23;;
35562;SDS011;21665;40.108;18.302;2023-03-20T08:00:12;19.20;;;17.85;;
35562;SDS011;21665;40.108;18.302;2023-03-20T08:02:39;19.65;;;18.17;;
35562;SDS011;21665;40.108;18.302;2023-03-20T09:12:21;19.67;;;18.40;;
35562;SDS011;21665;40.108;18.302;2023-03-20T09:46:32;19.70;;;18.48;;
35562;SDS011;21665;40.108;18.302;2023-03-20T09:49:31;19.48;;;18.30;;
35562;SDS011;21665;40.108;18.302;2023-03-20T09:52:29;19.90;;;18.38;;
35562;SDS011;21665;40.108;18.302;2023-03-20T09:55:13;19.63;;;18.25;;
35562;SDS011;21665;40.108;18.302;2023-03-20T09:57:44;19.73;;;18.30;;
35562;SDS011;21665;40.108;18.302;2023-03-20T10:00:18;20.05;;;18.85;;
35562;SDS011;21665;40.108;18.302;2023-03-20T10:05:26;19.27;;;17.80;;
35562;SDS011;21665;40.108;18.302;2023-03-20T10:07:56;60.50;;;21.77;;
35562;SDS011;21665;40.108;18.302;2023-03-20T10:10:29;50.75;;;21.92;;
35562;SDS011;21665;40.108;18.302;2023-03-20T10:18:26;31.00;;;19.75;;
35562;SDS011;21665;40.108;18.302;2023-03-20T11:07:33;19.00;;;17.80;;
35562;SDS011;21665;40.108;18.302;2023-03-20T11:10:06;19.42;;;17.95;;
35562;SDS011;21665;40.108;18.302;2023-03-20T11:12:45;20.02;;;17.92;;
35562;SDS011;21665;40.108;18.302;2023-03-20T12:10:03;19.52;;;18.00;;
35562;SDS011;21665;40.108;18.302;2023-03-20T12:12:51;18.80;;;17.60;;
35562;SDS011;21665;40.108;18.302;2023-03-20T13:23:45;17.77;;;16.38;;
35562;SDS011;21665;40.108;18.302;2023-03-20T13:26:45;17.30;;;16.20;;
35562;SDS011;21665;40.108;18.302;2023-03-20T14:13:57;33.38;;;29.90;;
35562;SDS011;21665;40.108;18.302;2023-03-20T14:16:42;29.98;;;25.73;;
35562;SDS011;21665;40.108;18.302;2023-03-20T14:19:17;25.55;;;23.08;;
35562;SDS011;21665;40.108;18.302;2023-03-20T14:21:46;20.35;;;18.75;;
35562;SDS011;21665;40.108;18.302;2023-03-20T14:24:16;19.40;;;17.80;;
35562;SDS011;21665;40.108;18.302;2023-03-20T14:26:48;17.98;;;16.88;;
35562;SDS011;21665;40.108;18.302;2023-03-20T14:29:21;17.83;;;16.38;;
35562;SDS011;21665;40.108;18.302;2023-03-20T14:39:56;18.95;;;17.48;;
35562;SDS011;21665;40.108;18.302;2023-03-20T14:42:38;18.58;;;17.23;;
35562;SDS011;21665;40.108;18.302;2023-03-20T14:47:54;18.05;;;17.00;;
35562;SDS011;21665;40.108;18.302;2023-03-20T14:50:35;19.10;;;17.80;;
35562;SDS011;21665;40.108;18.302;2023-03-20T14:53:24;19.17;;;17.77;;
35562;SDS011;21665;40.108;18.302;2023-03-20T15:01:23;19.73;;;18.15;;
35562;SDS011;21665;40.108;18.302;2023-03-20T15:03:56;21.92;;;19.67;;
35562;SDS011;21665;40.108;18.302;2023-03-20T15:09:06;20.02;;;18.73;;
